createdAt,value
2023-01-09T00:04:19.092Z,99628.03
2023-01-09T00:09:22.913Z,99614.91
2023-01-09T00:14:24.939Z,99603.56
2023-01-09T00:19:27.014Z,99599.25
2023-01-09T00:24:29.213Z,99589.66
2023-01-09T00:29:31.188Z,99583.63
2023-01-09T00:34:37.744Z,99590.75
2023-01-09T00:39:41.790Z,99588.19
2023-01-09T00:44:48.246Z,99575.03
2023-01-09T00:49:52.368Z,99558.38
2023-01-09T00:54:54.350Z,99554.94
2023-01-09T00:59:56.502Z,99562.91
2023-01-09T01:05:17.123Z,99563.88
2023-01-09T01:10:26.796Z,99555.13
2023-01-09T01:15:29.815Z,99550.78
2023-01-09T01:20:31.855Z,99546.41
2023-01-09T01:25:37.756Z,99561.41
2023-01-09T01:30:41.029Z,99572.06
2023-01-09T01:35:43.017Z,99572.97
2023-01-09T01:40:45.082Z,99587.91
2023-01-09T01:45:47.172Z,99582.66
2023-01-09T01:51:01.499Z,99580.94
2023-01-09T01:56:17.563Z,99574.81
2023-01-09T02:06:37.685Z,99569.56
2023-01-09T02:11:46.162Z,99566.94
2023-01-09T02:17:15.627Z,99551.16
2023-01-09T02:23:03.579Z,99546.78
2023-01-09T02:28:17.077Z,99532.72
2023-01-09T02:33:54.246Z,99528.38
2023-01-09T02:39:31.652Z,99526.66
2023-01-09T02:44:37.117Z,99519.66
2023-01-09T02:49:40.435Z,99514.38
2023-01-09T02:55:03.664Z,99513.53
2023-01-09T03:00:11.767Z,99510.03
2023-01-09T03:05:33.127Z,99511.78
2023-01-09T03:11:01.294Z,99498.63
2023-01-09T03:16:08.756Z,99491.63
2023-01-09T03:21:12.203Z,99485.47
2023-01-09T03:26:14.426Z,99475.81
2023-01-09T03:31:17.652Z,99469.69
2023-01-09T03:36:21.181Z,99474.09
2023-01-09T03:41:23.236Z,99462.69
2023-01-09T03:46:25.279Z,99466.19
2023-01-09T03:51:27.382Z,99461.81
2023-01-09T03:56:29.426Z,99461.81
2023-01-09T04:01:31.727Z,99453.94
2023-01-09T04:06:33.893Z,99450.44
2023-01-09T04:11:35.891Z,99459.22
2023-01-09T04:16:37.934Z,99456.59
2023-01-09T04:21:39.992Z,99456.59
2023-01-09T04:26:41.960Z,99450.44
2023-01-09T04:31:44.372Z,99457.47
2023-01-09T04:36:46.667Z,99446.94
2023-01-09T04:41:51.705Z,99439.94
2023-01-09T04:46:55.142Z,99431.16
2023-01-09T04:51:57.208Z,99438.16
2023-01-09T04:56:59.174Z,99425.91
2023-01-09T05:02:01.348Z,99418.00
2023-01-09T05:07:03.842Z,99418.00
2023-01-09T05:12:06.270Z,99422.38
2023-01-09T05:17:08.255Z,99412.75
2023-01-09T05:22:10.307Z,99407.47
2023-01-09T05:27:12.546Z,99401.34
2023-01-09T05:32:14.625Z,99386.44
2023-01-09T05:37:16.700Z,99382.94
2023-01-09T05:42:18.751Z,99373.28
2023-01-09T05:47:20.816Z,99370.66
2023-01-09T05:52:24.340Z,99367.13
2023-01-09T05:57:26.542Z,99342.59
2023-01-09T06:02:28.626Z,99361.88
2023-01-09T06:07:30.803Z,99358.38
2023-01-09T06:12:32.888Z,99344.34
2023-01-09T06:17:34.962Z,99350.50
2023-01-09T06:22:37.693Z,99354.00
2023-01-09T06:27:39.687Z,99351.34
2023-01-09T06:32:41.736Z,99355.75
2023-01-09T06:37:44.505Z,99348.72
2023-01-09T06:42:47.325Z,99339.97
2023-01-09T06:47:50.329Z,99334.72
2023-01-09T06:52:52.417Z,99332.94
2023-01-09T06:57:54.632Z,99329.44
2023-01-09T07:02:56.739Z,99317.19
2023-01-09T07:07:58.843Z,99305.78
2023-01-09T07:13:00.886Z,99314.56
2023-01-09T07:18:03.785Z,99312.78
2023-01-09T07:23:05.881Z,99312.78
2023-01-09T07:28:08.055Z,99317.19
2023-01-09T07:33:10.496Z,99311.91
2023-01-09T07:38:12.675Z,99314.56
2023-01-09T07:43:15.125Z,99308.41
2023-01-09T07:48:17.222Z,99316.31
2023-01-09T07:53:19.428Z,99300.53
2023-01-09T07:58:21.483Z,99291.75
2023-01-09T08:03:23.544Z,99290.88
2023-01-09T08:08:25.913Z,99286.50
2023-01-09T08:13:30.407Z,99289.13
2023-01-09T08:18:34.654Z,99290.88
2023-01-09T08:23:36.743Z,99289.13
2023-01-09T08:28:38.767Z,99295.25
2023-01-09T08:33:40.990Z,99292.63
2023-01-09T08:38:43.295Z,99296.13
2023-01-09T08:44:03.603Z,99285.63
2023-01-09T08:49:05.716Z,99281.22
2023-01-09T08:54:07.904Z,99279.47
2023-01-09T08:59:13.283Z,99276.84
2023-01-09T09:04:17.063Z,99286.47
2023-01-09T09:09:19.651Z,99286.78
2023-01-09T09:14:40.115Z,99277.41
2023-01-09T09:19:43.086Z,99258.81
2023-01-09T09:24:45.205Z,99268.13
2023-01-09T09:29:50.021Z,99253.81
2023-01-09T09:34:52.158Z,99238.66
2023-01-09T09:39:54.470Z,99227.56
2023-01-09T09:45:23.921Z,99223.41
2023-01-09T09:50:50.843Z,99217.72
2023-01-09T09:55:53.483Z,99208.34
2023-01-09T10:00:57.613Z,99202.91
2023-01-09T10:06:03.514Z,99210.00
2023-01-09T10:11:13.616Z,99200.66
2023-01-09T10:16:40.812Z,99192.03
2023-01-09T10:22:20.203Z,99195.25
2023-01-09T10:28:03.098Z,99188.25
2023-01-09T10:33:26.891Z,99186.16
2023-01-09T10:38:37.332Z,99169.41
2023-01-09T10:43:49.300Z,99159.94
2023-01-09T10:48:56.530Z,99154.72
2023-01-09T10:53:58.641Z,99140.78
2023-01-09T10:59:00.583Z,99132.25
2023-01-09T11:04:03.068Z,99117.66
2023-01-09T11:09:06.032Z,99110.19
2023-01-09T11:14:17.928Z,99095.50
2023-01-09T11:19:20.495Z,99094.44
2023-01-09T11:24:22.457Z,99090.59
2023-01-09T11:29:27.465Z,99078.75
2023-01-09T11:34:32.817Z,99078.47
2023-01-09T11:39:39.954Z,99071.13
2023-01-09T11:44:42.000Z,99052.94
2023-01-09T11:49:46.460Z,99052.59
2023-01-09T11:54:58.045Z,99059.16
2023-01-09T12:00:04.551Z,99059.69
2023-01-09T12:05:38.842Z,99045.09
2023-01-09T12:11:28.459Z,99043.75
2023-01-09T12:16:44.992Z,99045.00
2023-01-09T12:21:53.063Z,99039.97
2023-01-09T12:27:17.414Z,99042.00
2023-01-09T12:32:49.832Z,99029.97
2023-01-09T12:38:10.390Z,99039.91
2023-01-09T12:43:40.433Z,99035.78
2023-01-09T12:49:06.392Z,99029.84
2023-01-09T12:54:15.777Z,99024.72
2023-01-09T12:59:30.397Z,99022.28
2023-01-09T13:04:37.504Z,99019.84
2023-01-09T13:09:50.371Z,99021.78
2023-01-09T13:15:01.143Z,99023.72
2023-01-09T13:20:05.210Z,99018.63
2023-01-09T13:25:32.966Z,99017.81
2023-01-09T13:31:04.925Z,99023.31
2023-01-09T13:36:07.396Z,99014.66
2023-01-09T13:41:32.978Z,99020.94
2023-01-09T13:46:39.504Z,99019.31
2023-01-09T13:51:44.652Z,99020.28
2023-01-09T13:57:20.829Z,99023.94
2023-01-09T14:02:50.207Z,99032.03
2023-01-09T14:08:07.291Z,99036.53
2023-01-09T14:13:17.355Z,99036.63
2023-01-09T14:18:29.083Z,99039.34
2023-01-09T14:23:50.851Z,99042.06
2023-01-09T14:29:32.419Z,99048.34
2023-01-09T14:34:39.654Z,99059.03
2023-01-09T14:39:46.430Z,99061.75
2023-01-09T14:45:16.542Z,99065.34
2023-01-09T14:50:38.336Z,99074.25
2023-01-09T14:55:51.729Z,99092.81
2023-01-09T15:01:10.597Z,99092.00
2023-01-09T15:06:20.493Z,99089.41
2023-01-09T15:11:22.991Z,99095.66
2023-01-09T15:16:26.892Z,99099.25
2023-01-09T15:21:33.754Z,99098.38
2023-01-09T15:26:36.011Z,99113.44
2023-01-09T15:31:41.943Z,99111.72
2023-01-09T15:36:45.129Z,99117.94
2023-01-09T15:42:06.058Z,99124.19
2023-01-09T15:47:21.882Z,99141.84
2023-01-09T15:52:24.671Z,99135.78
2023-01-09T15:57:28.336Z,99155.13
2023-01-09T16:02:48.799Z,99158.72
2023-01-09T16:07:51.525Z,99161.41
2023-01-09T16:12:55.018Z,99175.56
2023-01-09T16:18:18.420Z,99176.50
2023-01-09T16:23:31.587Z,99194.22
2023-01-09T16:28:34.010Z,99208.34
2023-01-09T16:33:37.227Z,99211.91
2023-01-09T16:38:41.893Z,99225.16
2023-01-09T16:43:44.050Z,99226.09
2023-01-09T16:48:46.831Z,99222.63
2023-01-09T16:53:49.962Z,99222.63
2023-01-09T16:58:55.035Z,99219.13
2023-01-09T17:03:57.224Z,99217.44
2023-01-09T17:08:59.535Z,99220.13
2023-01-09T17:14:02.712Z,99231.59
2023-01-09T17:19:05.652Z,99240.44
2023-01-09T17:24:26.698Z,99240.47
2023-01-09T17:29:30.419Z,99233.47
2023-01-09T17:34:34.168Z,99207.06
2023-01-09T17:39:36.851Z,99201.81
2023-01-09T17:44:39.067Z,99228.22
2023-01-09T17:49:42.717Z,99259.06
2023-01-09T17:54:45.089Z,99243.25
2023-01-09T17:59:47.226Z,99252.09
2023-01-09T18:04:49.589Z,99276.78
2023-01-09T18:09:51.662Z,99275.91
2023-01-09T18:14:54.485Z,99285.63
2023-01-09T18:19:57.078Z,99289.19
2023-01-09T18:24:59.469Z,99298.00
2023-01-09T18:30:05.013Z,99310.34
2023-01-09T18:35:09.686Z,99321.81
2023-01-09T18:40:12.777Z,99336.81
2023-01-09T18:45:15.390Z,99336.81
2023-01-09T18:50:18.112Z,99351.78
2023-01-09T18:55:22.376Z,99358.84
2023-01-09T19:00:25.171Z,99344.78
2023-01-09T19:05:27.921Z,99360.66
2023-01-09T19:10:30.339Z,99366.81
2023-01-09T19:15:34.943Z,99363.31
2023-01-09T19:20:40.149Z,99360.69
2023-01-09T19:25:42.495Z,99370.38
2023-01-09T19:30:45.735Z,99385.34
2023-01-09T19:35:53.191Z,99380.09
2023-01-09T19:40:57.362Z,99383.66
2023-01-09T19:46:00.932Z,99385.44
2023-01-09T19:51:05.678Z,99388.09
2023-01-09T19:56:13.468Z,99401.31
2023-01-09T20:01:18.497Z,99405.72
2023-01-09T20:06:25.658Z,99403.97
2023-01-09T20:11:30.936Z,99423.34
2023-01-09T20:16:33.713Z,99419.84
2023-01-09T20:21:37.655Z,99408.41
2023-01-09T20:26:40.934Z,99414.59
2023-01-09T20:31:43.424Z,99426.03
2023-01-09T20:36:46.701Z,99448.91
2023-01-09T20:41:49.012Z,99465.63
2023-01-09T20:46:53.899Z,99470.03
2023-01-09T20:51:56.439Z,99468.28
2023-01-09T20:56:58.524Z,99479.72
2023-01-09T21:02:00.668Z,99492.03
2023-01-09T21:07:02.785Z,99493.78
2023-01-09T21:12:25.029Z,99497.31
2023-01-09T21:17:28.477Z,99492.91
2023-01-09T21:22:33.584Z,99508.75
2023-01-09T21:27:47.395Z,99519.31
2023-01-09T21:32:49.567Z,99532.50
2023-01-09T21:37:51.639Z,99544.81
2023-01-09T21:43:12.120Z,99552.75
2023-01-09T21:48:14.054Z,99560.66
2023-01-09T21:53:16.440Z,99569.47
2023-01-09T21:58:18.586Z,99567.72
2023-01-09T22:03:22.380Z,99583.56
2023-01-09T22:08:24.425Z,99595.88
2023-01-09T22:13:27.621Z,99598.50
2023-01-09T22:18:29.652Z,99601.16
2023-01-09T22:23:31.804Z,99600.28
2023-01-09T22:28:33.777Z,99611.72
2023-01-09T22:33:36.286Z,99606.44
2023-01-09T22:38:38.423Z,99615.22
2023-01-09T22:43:40.594Z,99623.16
2023-01-09T22:48:42.787Z,99630.19
2023-01-09T22:53:45.715Z,99640.75
2023-01-09T22:58:52.389Z,99643.38
2023-01-09T23:03:54.474Z,99650.44
2023-01-09T23:08:56.447Z,99652.19
2023-01-09T23:13:58.507Z,99659.22
2023-01-09T23:19:00.624Z,99664.50
2023-01-09T23:24:02.704Z,99673.31
2023-01-09T23:29:07.147Z,99670.66
2023-01-09T23:34:14.522Z,99676.81
2023-01-09T23:39:16.859Z,99679.47
2023-01-09T23:44:18.968Z,99675.97
2023-01-09T23:49:21.440Z,99680.34
2023-01-09T23:54:23.543Z,99697.06
2023-01-09T23:59:25.505Z,99686.50
